Time;durP1;ratioP1;P1;durP2;ratioP2;P2;SDS_P1;SDS_P2;PMS_P1;PMS_P2;Temp;Humidity;BMP_temperature;BMP_pressure;BME280_temperature;BME280_humidity;BME280_pressure;Samples;Min_cycle;Max_cycle;Signal;HPM_P1;HPM_P2
2022/04/13 01:04:36;;;;;;;14.63;13.50;;;12.60;99.90;;;;;;6190623;22;21397;-72
2022/04/13 01:07:04;;;;;;;15.87;14.87;;;12.60;99.90;;;;;;6179751;23;20445;-72
2022/04/13 01:09:31;;;;;;;14.63;13.70;;;12.60;99.90;;;;;;6182643;23;20608;-70
2022/04/13 01:11:58;;;;;;;14.30;13.37;;;12.60;99.90;;;;;;6182665;23;20467;-72
2022/04/13 01:14:24;;;;;;;14.63;13.50;;;12.60;99.90;;;;;;6182948;23;20414;-73
2022/04/13 01:16:51;;;;;;;14.50;13.70;;;12.60;99.90;;;;;;6182664;23;20430;-73
2022/04/13 01:19:18;;;;;;;15.37;14.20;;;12.50;99.90;;;;;;6182461;23;20409;-73
2022/04/13 01:21:52;;;;;;;16.60;15.33;;;12.50;99.90;;;;;;6182697;23;20552;-72
2022/04/13 01:24:22;;;;;;;16.33;15.20;;;12.50;99.90;;;;;;6182591;23;20716;-72
2022/04/13 01:26:48;;;;;;;15.27;14.10;;;12.50;99.90;;;;;;6182359;23;20446;-72
2022/04/13 01:29:15;;;;;;;14.20;13.30;;;12.40;99.90;;;;;;6182348;23;20417;-72
2022/04/13 01:31:42;;;;;;;16.00;14.93;;;12.30;99.90;;;;;;6182372;23;20412;-71
2022/04/13 01:34:09;;;;;;;15.67;14.57;;;12.30;99.90;;;;;;6182784;23;20755;-71
2022/04/13 01:36:37;;;;;;;16.20;14.80;;;12.20;99.90;;;;;;6182568;23;20452;-71
2022/04/13 01:39:05;;;;;;;16.17;14.57;;;12.10;99.90;;;;;;6181932;23;20408;-72
2022/04/13 01:41:34;;;;;;;17.27;14.67;;;12.10;99.90;;;;;;6182284;23;20410;-71
2022/04/13 01:44:00;;;;;;;14.87;13.67;;;12.00;99.90;;;;;;6182275;23;20750;-72
2022/04/13 01:46:27;;;;;;;15.30;13.90;;;12.00;99.90;;;;;;6182089;23;20441;-73
2022/04/13 01:48:54;;;;;;;16.17;14.90;;;11.90;99.90;;;;;;6182595;23;20413;-73
2022/04/13 01:51:21;;;;;;;16.43;15.10;;;11.90;99.90;;;;;;6182282;23;20410;-73
2022/04/13 01:53:48;;;;;;;15.73;14.53;;;11.90;99.90;;;;;;6182264;23;20788;-72
2022/04/13 01:56:15;;;;;;;16.20;14.90;;;11.90;99.90;;;;;;6182163;23;20744;-73
2022/04/13 01:58:43;;;;;;;15.50;14.40;;;11.80;99.90;;;;;;6182159;23;20917;-72
2022/04/13 02:01:10;;;;;;;15.87;14.87;;;11.80;99.90;;;;;;6182115;23;20916;-72
2022/04/13 02:03:37;;;;;;;16.47;15.00;;;11.90;99.90;;;;;;6182250;23;20429;-72
2022/04/13 02:06:04;;;;;;;15.87;14.43;;;11.90;99.90;;;;;;6200097;23;20490;-73
2022/04/13 02:08:31;;;;;;;15.37;14.17;;;11.90;99.90;;;;;;6212002;23;20428;-72
2022/04/13 02:10:58;;;;;;;16.43;15.40;;;11.90;99.90;;;;;;6212026;23;20409;-71
2022/04/13 02:13:24;;;;;;;18.87;16.97;;;11.90;99.90;;;;;;6212408;23;20412;-71
2022/04/13 02:15:52;;;;;;;18.07;16.57;;;11.80;99.90;;;;;;6211853;23;20919;-73
2022/04/13 02:18:19;;;;;;;16.53;15.40;;;11.70;99.90;;;;;;6211991;23;20471;-72
2022/04/13 02:20:46;;;;;;;16.43;15.33;;;11.60;99.90;;;;;;6211922;23;20416;-72
2022/04/13 02:23:12;;;;;;;16.77;15.57;;;11.60;99.90;;;;;;6211951;23;20409;-72
2022/04/13 02:25:39;;;;;;;16.50;15.40;;;11.60;99.90;;;;;;6212262;23;20408;-72
2022/04/13 02:28:07;;;;;;;18.20;16.43;;;11.60;99.90;;;;;;6211665;23;20494;-72
2022/04/13 02:30:34;;;;;;;17.40;15.80;;;11.50;99.90;;;;;;6211798;23;20719;-72
2022/04/13 02:33:02;;;;;;;17.03;15.60;;;11.50;99.90;;;;;;6211930;23;20419;-72
2022/04/13 02:35:29;;;;;;;16.33;15.23;;;11.50;99.90;;;;;;6211855;23;20419;-72
2022/04/13 02:37:56;;;;;;;16.60;14.90;;;11.50;99.90;;;;;;6211774;23;20411;-72
2022/04/13 02:40:22;;;;;;;14.97;13.77;;;11.50;99.90;;;;;;6212181;23;20696;-73
2022/04/13 02:42:49;;;;;;;15.90;14.40;;;11.40;99.90;;;;;;6212195;23;20404;-73
2022/04/13 02:45:16;;;;;;;15.60;14.50;;;11.30;99.90;;;;;;6211836;23;20413;-72
2022/04/13 02:47:43;;;;;;;15.37;13.90;;;11.30;99.90;;;;;;6211749;23;20444;-73
2022/04/13 02:50:11;;;;;;;14.20;13.40;;;11.20;99.90;;;;;;6211742;23;20408;-73
2022/04/13 02:52:38;;;;;;;16.33;14.33;;;11.20;99.90;;;;;;6212129;23;20408;-73
2022/04/13 02:55:05;;;;;;;16.57;15.33;;;11.20;99.90;;;;;;6211971;23;20446;-72
2022/04/13 02:57:32;;;;;;;16.23;14.83;;;11.10;99.90;;;;;;6209350;23;20785;-72
2022/04/13 02:59:58;;;;;;;15.93;14.83;;;11.10;99.90;;;;;;6206260;23;20443;-72
2022/04/13 03:02:29;;;;;;;15.37;14.37;;;11.00;99.90;;;;;;6208820;23;20412;-72
2022/04/13 03:04:55;;;;;;;16.63;15.33;;;11.00;99.90;;;;;;6207575;23;20451;-73
2022/04/13 03:07:25;;;;;;;16.57;15.40;;;10.90;99.90;;;;;;6209778;23;20540;-73
2022/04/13 03:09:52;;;;;;;16.00;14.97;;;10.90;99.90;;;;;;6212432;23;20420;-73
2022/04/13 03:12:19;;;;;;;16.30;15.20;;;10.90;99.90;;;;;;6211911;23;20412;-72
2022/04/13 03:14:45;;;;;;;14.80;13.90;;;10.80;99.90;;;;;;6212145;23;20414;-72
2022/04/13 03:17:12;;;;;;;16.53;15.33;;;10.80;99.90;;;;;;6212000;23;20714;-72
2022/04/13 03:19:39;;;;;;;15.30;14.13;;;10.70;99.90;;;;;;6212235;23;20743;-72
2022/04/13 03:22:05;;;;;;;17.90;16.47;;;10.70;99.90;;;;;;6212208;23;20421;-71
2022/04/13 03:24:34;;;;;;;16.50;15.40;;;10.70;99.90;;;;;;6211994;23;20409;-72
2022/04/13 03:27:01;;;;;;;16.73;15.50;;;10.70;99.90;;;;;;6212002;23;20444;-72
2022/04/13 03:29:28;;;;;;;16.40;15.20;;;10.60;99.90;;;;;;6211964;23;20408;-72
2022/04/13 03:31:54;;;;;;;17.00;15.07;;;10.60;99.90;;;;;;6212494;23;20407;-72
2022/04/13 03:34:21;;;;;;;15.90;14.43;;;10.50;99.90;;;;;;6212100;23;20416;-72
2022/04/13 03:36:48;;;;;;;16.03;14.20;;;10.60;99.90;;;;;;6211946;23;20470;-72
2022/04/13 03:39:15;;;;;;;15.57;14.20;;;10.50;99.90;;;;;;6211742;23;20471;-72
2022/04/13 03:41:44;;;;;;;15.33;14.13;;;10.60;99.90;;;;;;6211952;23;20413;-72
2022/04/13 03:44:10;;;;;;;15.60;14.50;;;10.60;99.90;;;;;;6212153;23;20466;-72
2022/04/13 03:46:37;;;;;;;15.00;14.07;;;10.60;99.90;;;;;;6211843;23;20887;-73
2022/04/13 03:49:04;;;;;;;14.73;13.83;;;10.50;99.90;;;;;;6212022;23;20409;-72
2022/04/13 03:51:31;;;;;;;14.90;13.97;;;10.60;99.90;;;;;;6212040;23;20451;-73
2022/04/13 03:53:57;;;;;;;14.37;13.40;;;10.60;99.90;;;;;;6211652;23;20409;-72
2022/04/13 03:56:24;;;;;;;15.87;14.47;;;10.60;99.90;;;;;;6211792;23;20412;-72
2022/04/13 03:58:52;;;;;;;16.00;14.73;;;10.60;99.90;;;;;;6211577;23;20427;-72
2022/04/13 04:01:19;;;;;;;14.70;13.60;;;10.60;99.90;;;;;;6211740;23;20412;-73
2022/04/13 04:03:45;;;;;;;16.17;14.90;;;10.60;99.90;;;;;;6213684;23;20798;-73
2022/04/13 04:06:12;;;;;;;14.80;13.87;;;10.50;99.90;;;;;;6212664;23;20502;-73
2022/04/13 04:08:39;;;;;;;15.77;14.67;;;10.40;99.90;;;;;;6214007;23;20763;-71
2022/04/13 04:11:06;;;;;;;17.70;15.40;;;10.40;99.90;;;;;;6213891;23;20413;-73
2022/04/13 04:13:33;;;;;;;16.40;15.27;;;10.30;99.90;;;;;;6213457;23;20436;-72
2022/04/13 04:16:01;;;;;;;16.47;15.30;;;10.30;99.90;;;;;;6213635;23;20413;-72
2022/04/13 04:18:28;;;;;;;16.57;15.07;;;10.30;99.90;;;;;;6213566;23;20408;-72
2022/04/13 04:20:54;;;;;;;15.47;14.37;;;10.30;99.90;;;;;;6213321;23;20404;-72
2022/04/13 04:23:21;;;;;;;16.37;14.80;;;10.30;99.90;;;;;;6213564;23;20891;-72
2022/04/13 04:25:48;;;;;;;17.57;15.70;;;10.30;99.90;;;;;;6213205;23;20412;-71
2022/04/13 04:28:15;;;;;;;18.10;16.80;;;10.30;99.90;;;;;;6213404;23;20447;-72
2022/04/13 04:30:42;;;;;;;16.50;15.40;;;10.30;99.90;;;;;;6213545;23;20419;-73
2022/04/13 04:33:12;;;;;;;16.73;15.53;;;10.20;99.90;;;;;;6213604;23;20478;-72
2022/04/13 04:35:40;;;;;;;15.97;14.77;;;10.20;99.90;;;;;;6213468;23;20418;-72
2022/04/13 04:38:07;;;;;;;15.33;14.23;;;10.20;99.90;;;;;;6213495;23;20471;-72
2022/04/13 04:40:33;;;;;;;15.40;14.47;;;10.10;99.90;;;;;;6213336;23;20412;-72
2022/04/13 04:43:00;;;;;;;16.40;15.00;;;10.20;99.90;;;;;;6213386;23;20405;-72
2022/04/13 04:45:27;;;;;;;17.10;15.70;;;10.10;99.90;;;;;;6212982;23;20409;-72
2022/04/13 04:47:56;;;;;;;24.23;16.20;;;10.20;99.90;;;;;;6213533;23;20439;-72
2022/04/13 04:50:24;;;;;;;15.83;14.73;;;10.10;99.90;;;;;;6213512;23;20418;-72
2022/04/13 04:52:51;;;;;;;19.13;17.27;;;10.20;99.90;;;;;;6213295;23;20431;-72
2022/04/13 04:55:19;;;;;;;19.43;17.47;;;10.20;99.90;;;;;;6213411;23;20415;-72
2022/04/13 04:57:47;;;;;;;18.33;16.70;;;10.20;99.90;;;;;;6212952;23;20412;-71
2022/04/13 05:00:17;;;;;;;17.87;16.37;;;10.20;99.90;;;;;;6213136;23;20459;-72
2022/04/13 05:02:44;;;;;;;16.83;15.47;;;10.20;99.90;;;;;;6213015;23;20407;-72
2022/04/13 05:05:13;;;;;;;16.57;15.10;;;10.20;99.90;;;;;;6212940;23;20773;-71
2022/04/13 05:07:41;;;;;;;17.97;16.60;;;10.20;99.90;;;;;;6212492;23;20571;-70
2022/04/13 05:10:09;;;;;;;16.63;15.33;;;10.30;99.90;;;;;;6212853;23;20416;-70
2022/04/13 05:12:43;;;;;;;18.03;16.13;;;10.30;99.90;;;;;;6213833;23;20419;-70
2022/04/13 05:15:11;;;;;;;17.33;16.00;;;10.40;99.90;;;;;;6213460;23;20428;-72
2022/04/13 05:17:37;;;;;;;16.43;15.23;;;10.40;99.90;;;;;;6213387;23;20405;-72
2022/04/13 05:20:06;;;;;;;16.90;15.70;;;10.50;99.90;;;;;;6212744;23;20474;-73
2022/04/13 05:22:33;;;;;;;15.93;14.83;;;10.50;99.90;;;;;;6212667;23;20411;-74
2022/04/13 05:25:04;;;;;;;16.13;15.03;;;10.50;99.90;;;;;;6213029;23;20411;-74
2022/04/13 05:27:31;;;;;;;17.97;16.40;;;10.60;99.90;;;;;;6212739;23;20690;-73
2022/04/13 05:29:58;;;;;;;19.27;17.37;;;10.60;99.90;;;;;;6212844;23;20463;-73
2022/04/13 05:32:24;;;;;;;18.03;16.60;;;10.70;99.90;;;;;;6213264;23;20435;-74
2022/04/13 05:34:57;;;;;;;19.87;17.80;;;10.80;99.90;;;;;;6213011;23;20722;-74
2022/04/13 05:37:24;;;;;;;17.90;16.60;;;10.90;99.90;;;;;;6212896;23;20972;-74
2022/04/13 05:39:50;;;;;;;17.33;15.47;;;11.10;99.90;;;;;;6213059;23;20435;-75
2022/04/13 05:45:41;;;;;;;17.23;15.93;;;11.30;99.90;;;;;;6195506;23;20569;-76
2022/04/13 05:48:08;;;;;;;17.20;16.03;;;11.50;99.90;;;;;;6211093;23;20459;-73
2022/04/13 05:50:35;;;;;;;18.33;16.57;;;11.60;99.90;;;;;;6212208;23;20431;-73
2022/04/13 05:53:01;;;;;;;18.73;17.00;;;11.80;99.90;;;;;;6212525;23;20408;-73
2022/04/13 05:55:29;;;;;;;17.13;15.67;;;11.90;99.90;;;;;;6212307;23;20499;-73
2022/04/13 05:57:56;;;;;;;17.83;16.10;;;12.00;99.90;;;;;;6212644;23;20455;-73
2022/04/13 06:00:23;;;;;;;19.50;17.77;;;12.20;99.90;;;;;;6212334;23;20935;-73
2022/04/13 06:02:51;;;;;;;19.33;17.57;;;12.40;99.90;;;;;;6212289;23;20412;-73
2022/04/13 06:05:18;;;;;;;18.13;16.83;;;12.60;99.90;;;;;;6211949;23;20441;-73
2022/04/13 06:07:45;;;;;;;17.83;16.27;;;12.70;99.90;;;;;;6211872;23;20710;-73
2022/04/13 06:10:12;;;;;;;18.23;16.67;;;12.80;99.90;;;;;;6212383;23;20413;-73
2022/04/13 06:12:39;;;;;;;19.03;17.40;;;12.80;99.90;;;;;;6212396;23;20918;-73
2022/04/13 06:15:07;;;;;;;17.70;16.40;;;12.90;99.90;;;;;;6212295;23;20911;-74
2022/04/13 06:17:34;;;;;;;20.20;18.17;;;13.00;99.90;;;;;;6212320;23;20412;-74
2022/04/13 06:20:02;;;;;;;17.87;16.47;;;13.10;99.90;;;;;;6211974;23;20414;-73
2022/04/13 06:22:32;;;;;;;18.77;16.87;;;13.30;99.90;;;;;;6208001;23;20428;-73
2022/04/13 06:25:01;;;;;;;19.50;16.07;;;13.50;99.90;;;;;;6212616;23;20441;-73
2022/04/13 06:27:28;;;;;;;18.37;16.87;;;13.70;99.90;;;;;;6212962;23;20405;-74
2022/04/13 06:29:54;;;;;;;18.43;16.93;;;13.90;99.90;;;;;;6213304;23;20408;-74
2022/04/13 06:32:21;;;;;;;17.07;15.90;;;14.10;99.90;;;;;;6212768;23;20843;-73
2022/04/13 06:34:48;;;;;;;17.17;16.00;;;14.20;99.90;;;;;;6212867;23;20459;-74
2022/04/13 06:37:16;;;;;;;17.10;15.80;;;14.30;99.90;;;;;;6212807;23;20409;-74
2022/04/13 06:39:42;;;;;;;17.27;15.73;;;14.50;99.90;;;;;;6212696;23;20409;-74
2022/04/13 06:42:09;;;;;;;15.80;14.70;;;14.70;99.90;;;;;;6213019;23;20463;-74
2022/04/13 06:44:36;;;;;;;16.23;14.90;;;14.80;99.90;;;;;;6213025;23;20448;-74
2022/04/13 06:47:03;;;;;;;15.87;14.87;;;15.00;99.90;;;;;;6213000;23;20451;-74
2022/04/13 06:49:30;;;;;;;15.60;14.57;;;15.20;99.90;;;;;;6207820;23;20440;-74
2022/04/13 06:51:57;;;;;;;16.60;15.30;;;15.70;99.90;;;;;;6210563;23;20734;-74
2022/04/13 06:54:27;;;;;;;14.80;13.80;;;15.90;99.90;;;;;;6212826;23;20413;-75
2022/04/13 06:56:54;;;;;;;14.77;13.87;;;16.00;99.90;;;;;;6212846;23;20398;-74
2022/04/13 06:59:21;;;;;;;15.50;14.60;;;16.30;99.90;;;;;;6212471;23;20429;-74
2022/04/13 07:01:47;;;;;;;15.70;14.60;;;16.40;99.90;;;;;;6209165;23;20416;-76
2022/04/13 07:04:14;;;;;;;15.63;14.73;;;16.40;99.90;;;;;;6211104;23;20432;-76
2022/04/13 07:06:41;;;;;;;16.13;14.40;;;16.40;99.90;;;;;;6208311;23;20441;-75
2022/04/13 07:09:08;;;;;;;17.47;15.80;;;16.60;99.90;;;;;;6212070;23;20447;-76
2022/04/13 07:11:36;;;;;;;15.50;14.50;;;16.80;99.90;;;;;;6211761;23;20722;-76
2022/04/13 07:14:03;;;;;;;16.07;14.70;;;16.90;99.90;;;;;;6209362;23;20475;-76
2022/04/13 07:16:29;;;;;;;17.37;16.07;;;17.00;99.90;;;;;;6211275;23;20646;-76
2022/04/13 07:18:56;;;;;;;16.83;15.73;;;17.10;99.70;;;;;;6211305;23;20412;-76
2022/04/13 07:21:23;;;;;;;16.20;14.87;;;17.30;99.20;;;;;;6212206;23;20419;-77
2022/04/13 07:23:50;;;;;;;15.67;14.80;;;17.60;98.40;;;;;;6211777;23;20912;-76
2022/04/13 07:26:17;;;;;;;15.10;14.30;;;17.80;98.00;;;;;;6211925;23;20412;-77
2022/04/13 07:28:46;;;;;;;17.17;16.00;;;17.90;97.40;;;;;;6211864;23;20444;-76
2022/04/13 07:31:12;;;;;;;15.67;14.60;;;18.10;97.00;;;;;;6211822;23;20512;-76
2022/04/13 07:33:39;;;;;;;15.80;14.90;;;18.30;96.60;;;;;;6209631;23;20950;-76
2022/04/13 07:36:06;;;;;;;16.53;14.90;;;18.50;96.10;;;;;;6211692;23;20896;-76
2022/04/13 07:38:33;;;;;;;16.00;15.13;;;18.60;95.40;;;;;;6213718;23;20420;-76
2022/04/13 07:41:01;;;;;;;15.23;14.33;;;18.60;95.70;;;;;;6213756;23;20741;-77
2022/04/13 07:43:28;;;;;;;16.50;15.40;;;19.00;95.10;;;;;;6213452;23;20416;-77
2022/04/13 07:45:56;;;;;;;17.53;15.87;;;19.40;94.30;;;;;;6213808;23;20770;-76
2022/04/13 07:48:23;;;;;;;15.93;14.83;;;19.60;94.10;;;;;;6213507;23;20440;-77
2022/04/13 07:50:50;;;;;;;15.40;14.63;;;19.80;93.60;;;;;;6213782;23;20775;-77
2022/04/13 07:53:17;;;;;;;15.23;14.10;;;19.80;93.20;;;;;;6213585;23;20404;-76
2022/04/13 07:55:43;;;;;;;15.00;14.20;;;19.50;93.50;;;;;;6213674;23;20415;-77
2022/04/13 07:58:10;;;;;;;14.50;13.70;;;19.40;93.90;;;;;;6213507;23;20915;-77
2022/04/13 08:00:37;;;;;;;14.87;13.93;;;19.60;93.80;;;;;;6213964;23;20769;-77
2022/04/13 08:03:05;;;;;;;14.67;13.97;;;19.90;93.70;;;;;;6213555;23;20416;-77
2022/04/13 08:05:32;;;;;;;16.47;15.50;;;20.50;92.80;;;;;;6213152;23;20491;-77
2022/04/13 08:07:59;;;;;;;16.07;14.80;;;20.90;91.70;;;;;;6213289;23;20405;-78
2022/04/13 08:10:26;;;;;;;16.93;15.90;;;21.20;91.30;;;;;;6213334;23;20417;-77
2022/04/13 08:12:53;;;;;;;16.13;15.03;;;21.40;90.90;;;;;;6213338;23;20928;-78
2022/04/13 08:15:20;;;;;;;16.30;15.50;;;21.70;90.10;;;;;;6213880;23;20475;-78
2022/04/13 08:17:47;;;;;;;17.47;16.03;;;21.70;89.50;;;;;;6213372;23;20786;-77
2022/04/13 08:20:15;;;;;;;15.00;14.20;;;22.00;89.70;;;;;;6213196;23;20405;-77
2022/04/13 08:22:43;;;;;;;16.07;15.17;;;22.30;87.70;;;;;;6213413;23;20415;-77
2022/04/13 08:25:10;;;;;;;16.07;14.70;;;22.30;87.70;;;;;;6213536;23;20412;-78
2022/04/13 08:27:37;;;;;;;16.40;15.43;;;22.30;87.80;;;;;;6213456;23;20412;-78
2022/04/13 08:30:04;;;;;;;17.23;16.13;;;22.50;86.60;;;;;;6213041;23;20459;-76
2022/04/13 08:32:31;;;;;;;16.03;14.93;;;23.10;85.40;;;;;;6212863;23;20478;-77
2022/04/13 08:34:59;;;;;;;16.97;15.93;;;23.60;82.70;;;;;;6212599;23;20419;-79
2022/04/13 08:37:29;;;;;;;17.30;16.10;;;24.00;82.60;;;;;;6213188;23;20412;-78
2022/04/13 08:39:56;;;;;;;17.40;16.30;;;24.50;78.10;;;;;;6213409;23;20500;-78
2022/04/13 08:42:32;;;;;;;16.43;15.33;;;24.40;77.30;;;;;;6213081;23;20440;-78
2022/04/13 08:45:03;;;;;;;16.17;15.20;;;24.40;77.80;;;;;;6213016;23;20396;-78
2022/04/13 08:47:35;;;;;;;16.10;15.27;;;24.70;76.30;;;;;;6212790;23;20466;-78
2022/04/13 08:50:02;;;;;;;16.47;15.47;;;24.80;76.00;;;;;;6213252;23;20424;-77
2022/04/13 08:52:32;;;;;;;18.37;17.13;;;25.50;74.60;;;;;;6212932;23;20416;-77
2022/04/13 08:55:04;;;;;;;18.00;16.90;;;25.60;73.00;;;;;;6212598;23;20903;-77
2022/04/13 08:57:37;;;;;;;20.40;16.87;;;26.20;71.40;;;;;;6212817;23;20397;-76
2022/04/13 09:00:09;;;;;;;19.37;17.83;;;26.80;69.20;;;;;;6213017;23;20712;-77
2022/04/13 09:03:05;;;;;;;18.47;17.47;;;27.30;67.10;;;;;;6212892;23;20455;-77
2022/04/13 09:05:34;;;;;;;17.83;16.30;;;27.60;64.60;;;;;;6212059;23;20441;-78
2022/04/13 09:08:09;;;;;;;17.17;15.97;;;27.90;62.80;;;;;;6212208;23;20916;-77
2022/04/13 09:10:37;;;;;;;16.80;15.70;;;28.60;59.90;;;;;;6212267;23;20432;-75
2022/04/13 09:13:08;;;;;;;17.40;16.30;;;29.60;56.50;;;;;;6212674;23;20417;-77
2022/04/13 09:15:37;;;;;;;15.60;14.80;;;30.10;54.70;;;;;;6212799;23;20405;-78
2022/04/13 09:18:04;;;;;;;16.87;15.90;;;29.80;53.40;;;;;;6212357;23;20413;-78
2022/04/13 09:20:31;;;;;;;17.53;16.40;;;29.60;53.30;;;;;;6212671;23;20773;-78
2022/04/13 09:23:00;;;;;;;17.20;16.10;;;29.80;53.10;;;;;;6212491;23;20413;-78
2022/04/13 09:25:31;;;;;;;15.70;14.90;;;29.50;53.20;;;;;;6212782;23;20404;-78
2022/04/13 09:27:58;;;;;;;16.63;15.60;;;30.20;52.10;;;;;;6212357;23;20861;-78
2022/04/13 09:30:25;;;;;;;17.27;16.10;;;30.40;51.90;;;;;;6212762;23;20463;-78
2022/04/13 09:32:52;;;;;;;17.20;16.10;;;30.00;51.00;;;;;;6212852;23;20688;-78
2022/04/13 09:35:19;;;;;;;16.30;15.20;;;30.70;49.90;;;;;;6212528;23;20413;-78
2022/04/13 09:37:46;;;;;;;15.80;14.80;;;30.80;49.40;;;;;;6212042;23;20955;-77
2022/04/13 09:40:29;;;;;;;16.20;15.03;;;30.60;49.50;;;;;;6212030;23;20409;-78
2022/04/13 09:43:05;;;;;;;16.97;15.77;;;30.60;49.50;;;;;;6212143;23;20395;-78
2022/04/13 09:45:34;;;;;;;16.67;15.77;;;30.60;48.90;;;;;;6212366;23;20401;-77
2022/04/13 09:48:04;;;;;;;15.77;14.97;;;30.50;49.10;;;;;;6209868;23;21063;-77
2022/04/13 09:50:31;;;;;;;16.70;15.60;;;30.70;47.60;;;;;;6211923;23;20532;-77
2022/04/13 09:52:58;;;;;;;15.13;14.43;;;31.10;46.80;;;;;;6212249;23;20416;-77
2022/04/13 09:55:26;;;;;;;16.97;15.87;;;31.90;46.10;;;;;;6212351;23;20413;-78
2022/04/13 09:58:04;;;;;;;15.47;14.77;;;32.90;44.00;;;;;;6211988;23;20448;-78
2022/04/13 10:00:31;;;;;;;15.53;14.53;;;31.90;42.70;;;;;;6211076;23;20389;-78
2022/04/13 10:03:08;;;;;;;15.90;15.10;;;31.30;43.10;;;;;;6211640;23;20412;-78
2022/04/13 10:05:35;;;;;;;15.07;14.27;;;31.30;43.60;;;;;;6211852;23;20444;-78
2022/04/13 10:08:02;;;;;;;15.53;14.73;;;30.20;43.50;;;;;;6211765;23;20413;-77
2022/04/13 10:10:29;;;;;;;14.70;14.10;;;30.20;44.70;;;;;;6212015;23;20475;-78
2022/04/13 10:12:57;;;;;;;15.23;14.27;;;30.50;44.50;;;;;;6212128;23;20405;-77
2022/04/13 10:15:24;;;;;;;15.53;14.73;;;30.90;43.30;;;;;;6212018;23;20409;-78
2022/04/13 10:17:56;;;;;;;16.20;15.20;;;31.30;44.00;;;;;;6212089;23;20415;-77
2022/04/13 10:20:23;;;;;;;15.87;14.77;;;31.10;44.10;;;;;;6212361;23;20393;-78
2022/04/13 10:23:00;;;;;;;14.93;14.23;;;30.90;42.90;;;;;;6212017;23;20737;-77
2022/04/13 10:25:28;;;;;;;16.60;15.20;;;31.20;42.90;;;;;;6211852;23;20459;-78
2022/04/13 10:27:57;;;;;;;16.23;15.33;;;31.50;42.60;;;;;;6212220;23;20412;-78
2022/04/13 10:30:28;;;;;;;16.47;15.60;;;31.80;41.90;;;;;;6212240;23;20441;-77
2022/04/13 10:33:00;;;;;;;16.63;15.60;;;31.60;42.60;;;;;;6212286;23;20393;-77
2022/04/13 10:35:28;;;;;;;16.03;15.23;;;32.00;41.40;;;;;;6212170;23;20409;-77
2022/04/13 10:37:55;;;;;;;15.67;14.70;;;32.40;41.00;;;;;;6211926;23;20409;-77
2022/04/13 10:40:23;;;;;;;15.27;14.57;;;32.70;41.10;;;;;;6212129;23;20508;-77
2022/04/13 10:42:52;;;;;;;14.20;13.60;;;32.70;39.70;;;;;;6211503;23;20417;-77
2022/04/13 10:45:20;;;;;;;15.00;13.93;;;32.30;40.60;;;;;;6211710;23;20416;-77
2022/04/13 10:47:54;;;;;;;15.77;15.00;;;31.60;41.30;;;;;;6211410;23;20820;-77
2022/04/13 10:50:30;;;;;;;16.77;15.37;;;31.90;40.50;;;;;;6211865;23;20467;-77
2022/04/13 10:52:59;;;;;;;16.00;14.70;;;32.50;39.40;;;;;;6210971;23;20393;-77
2022/04/13 10:55:29;;;;;;;15.63;14.60;;;32.90;38.00;;;;;;6211916;23;20408;-77
2022/04/13 10:58:00;;;;;;;16.83;15.47;;;33.40;36.80;;;;;;6212105;23;20412;-77
2022/04/13 11:00:32;;;;;;;14.67;13.87;;;33.30;36.70;;;;;;6211681;23;20385;-77
2022/04/13 11:03:03;;;;;;;16.57;15.30;;;33.70;35.10;;;;;;6211411;23;20443;-77
2022/04/13 11:05:30;;;;;;;16.17;14.93;;;33.50;36.00;;;;;;6211606;23;20763;-77
2022/04/13 11:08:06;;;;;;;16.43;15.70;;;33.60;34.70;;;;;;6211773;23;20402;-77
2022/04/13 11:10:35;;;;;;;15.37;14.47;;;33.10;34.90;;;;;;6212381;23;20428;-77
2022/04/13 11:13:02;;;;;;;15.80;14.80;;;33.10;35.70;;;;;;6214806;23;21315;-78
2022/04/13 11:15:42;;;;;;;16.90;16.00;;;33.00;35.40;;;;;;6215145;23;20420;-78
2022/04/13 11:18:10;;;;;;;16.27;15.57;;;32.60;35.40;;;;;;6215480;23;20397;-77
2022/04/13 11:20:38;;;;;;;16.63;15.73;;;33.00;35.20;;;;;;6215154;23;20876;-77
2022/04/13 11:23:09;;;;;;;17.10;16.10;;;32.10;35.70;;;;;;6215448;23;20412;-77
2022/04/13 11:25:47;;;;;;;16.17;15.40;;;31.60;36.70;;;;;;6215517;23;20766;-78
2022/04/13 11:28:27;;;;;;;17.33;16.40;;;31.80;36.50;;;;;;6215137;23;20389;-78
2022/04/13 11:31:03;;;;;;;16.40;15.47;;;31.90;36.50;;;;;;6215492;23;20434;-77
2022/04/13 11:33:52;;;;;;;16.20;15.30;;;32.00;36.20;;;;;;6214757;23;20535;-78
2022/04/13 11:36:21;;;;;;;15.70;15.00;;;31.60;36.60;;;;;;6215227;23;20766;-77
2022/04/13 11:38:49;;;;;;;16.63;15.60;;;31.40;36.70;;;;;;6215166;23;20762;-78
2022/04/13 11:41:16;;;;;;;15.57;14.83;;;31.70;36.90;;;;;;6215030;23;20423;-75
2022/04/13 11:43:43;;;;;;;16.17;15.10;;;32.20;36.90;;;;;;6214935;23;20415;-78
2022/04/13 11:46:34;;;;;;;17.80;16.60;;;32.70;36.50;;;;;;6215302;23;20408;-78
2022/04/13 11:49:01;;;;;;;14.90;14.30;;;32.40;36.20;;;;;;6214980;23;20425;-77
2022/04/13 11:51:29;;;;;;;15.70;14.80;;;32.00;36.90;;;;;;6214692;23;20767;-76
2022/04/13 11:54:05;;;;;;;15.07;14.27;;;32.40;36.20;;;;;;6215097;23;20416;-76
2022/04/13 11:56:33;;;;;;;16.10;15.00;;;33.00;36.10;;;;;;6215066;23;20789;-77
2022/04/13 11:59:00;;;;;;;15.23;14.63;;;32.70;36.10;;;;;;6214931;23;20408;-78
2022/04/13 12:01:28;;;;;;;15.40;14.60;;;31.90;36.60;;;;;;6215024;23;20436;-77
2022/04/13 12:03:58;;;;;;;16.90;15.43;;;32.00;36.90;;;;;;6215157;23;20432;-78
2022/04/13 12:06:26;;;;;;;16.17;15.07;;;32.10;37.00;;;;;;6214731;23;20527;-77
2022/04/13 12:08:55;;;;;;;16.20;15.30;;;32.00;37.80;;;;;;6212994;23;20408;-77
2022/04/13 12:11:23;;;;;;;16.63;15.60;;;32.10;37.30;;;;;;6214704;23;20441;-76
2022/04/13 12:13:52;;;;;;;15.97;15.07;;;32.70;36.90;;;;;;6215147;23;20412;-76
2022/04/13 12:16:21;;;;;;;16.47;15.47;;;32.70;37.30;;;;;;6214788;23;20412;-76
2022/04/13 12:18:49;;;;;;;16.27;15.27;;;33.30;37.10;;;;;;6214891;23;20416;-77
2022/04/13 12:21:21;;;;;;;15.13;14.10;;;32.70;37.40;;;;;;6214826;23;20708;-77
2022/04/13 12:23:48;;;;;;;16.00;15.10;;;32.50;38.00;;;;;;6213008;23;20400;-76
2022/04/13 12:26:16;;;;;;;15.70;15.07;;;31.70;38.80;;;;;;6213290;23;20412;-77
2022/04/13 12:28:43;;;;;;;15.40;14.47;;;31.30;39.00;;;;;;6212910;23;20413;-77
2022/04/13 12:31:11;;;;;;;15.93;15.03;;;31.30;39.70;;;;;;6213606;23;20765;-76
2022/04/13 12:33:40;;;;;;;15.53;14.63;;;31.40;39.00;;;;;;6213429;23;20424;-77
2022/04/13 12:36:10;;;;;;;15.23;14.57;;;31.60;39.30;;;;;;6213566;23;20417;-76
2022/04/13 12:38:38;;;;;;;16.37;15.20;;;31.60;39.10;;;;;;6214341;23;20397;-76
2022/04/13 12:41:11;;;;;;;15.33;14.33;;;31.70;39.30;;;;;;6213518;23;20413;-76
2022/04/13 12:43:39;;;;;;;14.93;14.00;;;31.70;38.80;;;;;;6213214;23;20389;-76
2022/04/13 12:46:14;;;;;;;16.87;15.70;;;31.70;39.50;;;;;;6213485;23;20499;-76
2022/04/13 12:48:42;;;;;;;16.20;15.27;;;31.60;39.60;;;;;;6213308;23;20706;-76
2022/04/13 12:51:10;;;;;;;15.53;14.33;;;31.80;39.90;;;;;;6212932;23;20963;-77
2022/04/13 12:53:47;;;;;;;16.20;15.10;;;31.20;39.50;;;;;;6213415;23;20713;-76
2022/04/13 12:56:15;;;;;;;16.93;15.33;;;31.40;40.00;;;;;;6213122;23;20710;-77
2022/04/13 12:58:43;;;;;;;15.90;15.00;;;31.60;40.00;;;;;;6213031;23;20409;-77
2022/04/13 13:01:10;;;;;;;16.37;15.47;;;32.00;39.30;;;;;;6213315;23;20413;-76
2022/04/13 13:03:40;;;;;;;14.90;14.07;;;32.30;39.90;;;;;;6213111;23;20429;-76
2022/04/13 13:06:10;;;;;;;15.73;15.00;;;32.00;38.70;;;;;;6213246;23;20440;-76
2022/04/13 13:08:50;;;;;;;15.43;14.80;;;32.50;38.80;;;;;;6213325;23;20405;-76
2022/04/13 13:11:17;;;;;;;14.77;14.07;;;32.00;38.40;;;;;;6212602;23;20827;-76
2022/04/13 13:13:44;;;;;;;15.37;14.60;;;32.10;38.30;;;;;;6212913;23;20420;-77
2022/04/13 13:16:29;;;;;;;15.23;14.10;;;32.40;38.50;;;;;;6212839;23;20478;-76
2022/04/13 13:19:08;;;;;;;14.00;13.03;;;31.60;39.10;;;;;;6212823;23;20393;-76
2022/04/13 13:21:36;;;;;;;14.17;13.17;;;31.00;39.70;;;;;;6212806;23;20385;-76
2022/04/13 13:24:03;;;;;;;14.40;13.67;;;31.20;40.40;;;;;;6212427;23;20416;-76
2022/04/13 13:26:30;;;;;;;13.50;12.80;;;31.50;40.10;;;;;;6212697;23;20413;-76
2022/04/13 13:28:57;;;;;;;14.27;13.37;;;31.50;39.90;;;;;;6212802;23;20404;-76
2022/04/13 13:31:26;;;;;;;15.03;14.33;;;31.00;40.80;;;;;;6212710;23;20441;-76
2022/04/13 13:33:53;;;;;;;15.30;14.27;;;31.20;40.50;;;;;;6212249;23;20420;-75
2022/04/13 13:36:20;;;;;;;14.67;13.90;;;31.30;40.50;;;;;;6212517;23;20411;-75
2022/04/13 13:38:49;;;;;;;15.43;14.53;;;31.40;40.10;;;;;;6212600;23;20623;-74
2022/04/13 13:41:16;;;;;;;14.73;14.03;;;31.40;40.30;;;;;;6212361;23;20405;-75